Time;durP1;ratioP1;P1;durP2;ratioP2;P2;SDS_P1;SDS_P2;PMS_P1;PMS_P2;Temp;Humidity;BMP_temperature;BMP_pressure;BME280_temperature;BME280_humidity;BME280_pressure;Samples;Min_cycle;Max_cycle;Signal;HPM_P1;HPM_P2
2021/09/16 00:01:42;;;;;;;7.00;2.00;;;;;;;15.03;74.58;101170.88;4967543;28;20061;-80
2021/09/16 00:04:09;;;;;;;3.30;2.05;;;;;;;15.04;74.39;101168.88;4951447;28;20050;-80
2021/09/16 00:06:37;;;;;;;5.35;2.17;;;;;;;15.05;74.42;101171.31;4967705;28;20086;-80
2021/09/16 00:09:04;;;;;;;6.10;2.00;;;;;;;15.06;74.31;101172.13;4967603;28;20050;-81
2021/09/16 00:11:31;;;;;;;4.70;1.92;;;;;;;15.03;74.37;101170.88;4950814;28;20060;-80
2021/09/16 00:13:58;;;;;;;4.50;2.13;;;;;;;15.01;74.36;101169.63;4950942;28;20058;-80
2021/09/16 00:16:25;;;;;;;2.60;1.75;;;;;;;15.01;74.33;101162.06;4950354;28;20043;-80
2021/09/16 00:18:52;;;;;;;3.67;1.60;;;;;;;15.01;74.51;101164.84;4967540;28;20047;-80
2021/09/16 00:21:18;;;;;;;3.00;1.90;;;;;;;15.04;74.52;101169.69;4951357;28;20047;-80
2021/09/16 00:23:45;;;;;;;5.88;1.80;;;;;;;15.07;74.11;101163.41;4965441;28;20133;-80
2021/09/16 00:26:12;;;;;;;3.13;2.10;;;;;;;15.06;74.29;101166.56;4966209;28;20157;-80
2021/09/16 00:28:39;;;;;;;5.85;2.08;;;;;;;15.03;74.17;101156.94;4950604;28;20042;-80
2021/09/16 00:31:05;;;;;;;5.53;1.55;;;;;;;15.03;74.24;101144.97;4967555;28;20046;-80
2021/09/16 00:33:32;;;;;;;3.63;1.63;;;;;;;14.99;74.22;101155.22;4968053;28;20065;-81
2021/09/16 00:35:59;;;;;;;7.15;2.08;;;;;;;14.97;74.28;101158.41;4949618;28;20054;-80
2021/09/16 00:38:26;;;;;;;3.65;1.80;;;;;;;14.95;74.00;101163.53;4966301;28;20138;-81
2021/09/16 00:40:53;;;;;;;4.35;1.83;;;;;;;14.94;74.28;101164.69;4967473;28;20042;-80
2021/09/16 00:43:20;;;;;;;2.40;1.55;;;;;;;14.93;74.01;101157.50;4934600;28;20133;-80
2021/09/16 00:45:47;;;;;;;5.55;2.10;;;;;;;14.91;73.86;101153.47;4965798;28;20050;-80
2021/09/16 00:48:14;;;;;;;6.47;2.35;;;;;;;14.89;74.10;101155.81;4950431;28;20057;-80
2021/09/16 00:50:41;;;;;;;4.57;1.70;;;;;;;14.86;74.11;101151.78;4964901;28;20043;-80
2021/09/16 00:53:09;;;;;;;6.45;1.80;;;;;;;14.87;73.85;101147.81;4967085;28;20438;-80
2021/09/16 00:55:37;;;;;;;3.65;1.90;;;;;;;14.85;73.73;101149.38;4963975;28;20075;-81
2021/09/16 00:58:06;;;;;;;7.78;2.35;;;;;;;14.79;74.37;101154.41;4966923;28;20046;-80
2021/09/16 01:00:35;;;;;;;7.30;1.67;;;;;;;14.76;73.97;101146.78;4951803;28;20042;-80
2021/09/16 01:03:02;;;;;;;4.13;1.88;;;;;;;14.74;73.87;101149.13;4967075;28;20141;-80
2021/09/16 01:05:29;;;;;;;4.75;2.20;;;;;;;14.71;74.32;101149.03;4969401;28;20051;-80
2021/09/16 01:07:59;;;;;;;5.25;1.58;;;;;;;14.68;74.59;101150.56;4966910;28;20915;-80
2021/09/16 01:10:26;;;;;;;3.90;1.63;;;;;;;14.69;74.47;101152.19;4942926;28;20047;-80
2021/09/16 01:12:56;;;;;;;5.65;2.60;;;;;;;14.67;74.44;101154.50;4955153;28;20035;-81
2021/09/16 01:15:22;;;;;;;3.92;1.40;;;;;;;14.62;74.66;101154.78;4953519;28;20050;-80
2021/09/16 01:17:49;;;;;;;5.50;2.05;;;;;;;14.60;74.74;101151.56;4970515;28;20074;-80
2021/09/16 01:20:16;;;;;;;4.65;1.70;;;;;;;14.54;74.94;101155.78;4954340;28;20054;-80
2021/09/16 01:22:45;;;;;;;3.33;1.48;;;;;;;14.51;74.89;101162.09;4951392;28;20049;-80
2021/09/16 01:25:12;;;;;;;3.80;1.38;;;;;;;14.45;75.20;101174.69;4968213;28;20122;-80
2021/09/16 01:27:39;;;;;;;2.45;1.40;;;;;;;14.43;75.29;101169.47;4951708;28;20074;-80
2021/09/16 01:30:06;;;;;;;3.63;1.30;;;;;;;14.42;75.22;101169.84;4941086;28;20085;-80
2021/09/16 01:32:33;;;;;;;5.57;1.80;;;;;;;14.37;75.24;101164.53;4962406;28;20052;-80
2021/09/16 01:35:00;;;;;;;3.50;1.75;;;;;;;14.37;75.21;101167.34;4969249;28;20047;-81
2021/09/16 01:37:26;;;;;;;3.67;1.30;;;;;;;14.34;75.27;101168.03;4968736;28;20047;-80
2021/09/16 01:39:53;;;;;;;5.03;1.90;;;;;;;14.28;75.52;101167.47;4968994;28;20405;-80
2021/09/16 01:42:20;;;;;;;2.83;1.70;;;;;;;14.30;75.29;101172.69;4951938;28;20137;-80
2021/09/16 01:44:47;;;;;;;4.45;1.73;;;;;;;14.25;75.30;101170.16;4951593;28;20042;-80
2021/09/16 01:47:15;;;;;;;9.18;2.05;;;;;;;14.24;75.37;101166.59;4950263;28;20110;-80
2021/09/16 01:49:41;;;;;;;4.30;1.67;;;;;;;14.20;75.44;101162.09;4950571;28;20113;-80
2021/09/16 01:52:08;;;;;;;7.65;1.92;;;;;;;14.15;75.64;101156.78;4933695;28;20053;-80
2021/09/16 01:54:35;;;;;;;3.75;1.92;;;;;;;14.17;75.51;101160.00;4961948;28;20113;-80
2021/09/16 01:57:02;;;;;;;5.70;2.40;;;;;;;14.14;75.75;101157.97;4967464;28;20484;-80
2021/09/16 01:59:29;;;;;;;2.95;1.40;;;;;;;14.07;75.74;101153.00;4967922;28;20175;-80
2021/09/16 02:01:55;;;;;;;6.50;1.63;;;;;;;14.05;75.96;101160.94;4966085;28;20047;-80
2021/09/16 02:04:22;;;;;;;3.95;1.15;;;;;;;14.04;75.85;101165.69;4950185;28;20057;-80
2021/09/16 02:06:49;;;;;;;4.35;1.88;;;;;;;14.00;76.05;101158.41;4950656;28;20043;-80
2021/09/16 02:09:15;;;;;;;6.18;1.85;;;;;;;14.00;76.13;101158.41;4951219;28;20047;-79
2021/09/16 02:11:42;;;;;;;5.78;2.47;;;;;;;13.96;76.14;101158.31;4967128;28;20053;-80
2021/09/16 02:14:09;;;;;;;5.00;1.58;;;;;;;13.91;76.22;101161.34;4951769;28;20514;-80
2021/09/16 02:16:36;;;;;;;3.60;1.50;;;;;;;13.87;76.17;101157.66;4949973;28;20391;-80
2021/09/16 02:19:04;;;;;;;4.55;1.60;;;;;;;13.82;76.71;101163.50;4951325;28;20259;-80
2021/09/16 02:21:31;;;;;;;7.90;2.03;;;;;;;13.79;76.66;101161.41;4967765;28;20049;-80
2021/09/16 02:23:58;;;;;;;5.38;1.88;;;;;;;13.78;76.34;101156.22;4965683;28;20050;-80
2021/09/16 02:26:24;;;;;;;6.18;1.23;;;;;;;13.76;76.69;101159.38;4951376;28;20847;-79
2021/09/16 02:28:51;;;;;;;6.32;1.70;;;;;;;13.75;76.51;101163.31;4965704;28;20051;-80
2021/09/16 02:31:18;;;;;;;8.40;2.08;;;;;;;13.70;76.53;101162.75;4948198;28;20471;-81
2021/09/16 02:33:45;;;;;;;4.70;1.73;;;;;;;13.65;76.73;101163.84;4967620;28;20042;-80
2021/09/16 02:36:11;;;;;;;6.65;1.95;;;;;;;13.63;77.08;101163.38;4935482;28;20128;-80
2021/09/16 02:38:39;;;;;;;6.82;2.55;;;;;;;13.65;77.02;101163.84;4969481;28;20045;-80
2021/09/16 02:41:07;;;;;;;6.35;2.17;;;;;;;13.60;77.19;101152.16;4967136;28;20051;-80
2021/09/16 02:43:34;;;;;;;4.75;1.77;;;;;;;13.59;77.16;101161.66;4966971;28;20483;-80
2021/09/16 02:46:01;;;;;;;10.57;1.63;;;;;;;13.56;77.33;101165.94;4969543;28;20050;-80
2021/09/16 02:48:28;;;;;;;7.07;2.55;;;;;;;13.55;77.21;101153.22;4968725;28;20061;-80
2021/09/16 02:50:54;;;;;;;6.93;1.65;;;;;;;13.53;77.38;101161.09;4961388;28;20058;-79
2021/09/16 02:53:21;;;;;;;8.30;2.47;;;;;;;13.52;77.48;101153.94;4951902;28;20069;-81
2021/09/16 02:55:48;;;;;;;6.18;1.85;;;;;;;13.47;77.48;101140.28;4967958;28;20065;-81
2021/09/16 02:58:14;;;;;;;6.65;2.30;;;;;;;13.43;77.78;101144.91;4951132;28;20042;-80
2021/09/16 03:00:41;;;;;;;7.70;1.90;;;;;;;13.45;77.68;101147.38;4968349;28;20495;-80
2021/09/16 03:03:09;;;;;;;10.95;2.22;;;;;;;13.49;77.53;101142.69;4950318;28;20503;-80
2021/09/16 03:05:35;;;;;;;6.63;2.00;;;;;;;13.51;77.24;101134.78;4968280;28;20066;-80
2021/09/16 03:08:03;;;;;;;14.80;3.15;;;;;;;13.46;77.56;101130.31;4967079;28;20094;-80
2021/09/16 03:10:29;;;;;;;12.20;2.97;;;;;;;13.46;77.32;101121.97;4969256;28;20049;-80
2021/09/16 03:12:56;;;;;;;10.38;2.60;;;;;;;13.50;77.33;101128.44;4951015;28;20077;-80
2021/09/16 03:15:23;;;;;;;6.53;2.03;;;;;;;13.46;77.10;101126.72;4968161;28;20566;-80
2021/09/16 03:17:53;;;;;;;9.27;2.58;;;;;;;13.39;77.47;101116.22;4949209;28;20050;-80
2021/09/16 03:20:19;;;;;;;6.95;2.15;;;;;;;13.36;77.43;101122.47;4951555;28;20050;-80
2021/09/16 03:22:46;;;;;;;9.18;1.90;;;;;;;13.37;77.75;101130.47;4948874;28;20061;-80
2021/09/16 03:25:13;;;;;;;10.57;3.00;;;;;;;13.36;77.76;101128.03;4951074;28;20058;-80
2021/09/16 03:27:40;;;;;;;8.85;2.30;;;;;;;13.38;77.54;101125.72;4950842;28;20055;-80
2021/09/16 03:30:11;;;;;;;7.00;2.50;;;;;;;13.36;77.81;101116.91;4941732;28;20065;-80
2021/09/16 03:32:39;;;;;;;7.85;2.17;;;;;;;13.36;77.37;101116.91;4940276;28;20061;-80
2021/09/16 03:35:06;;;;;;;8.73;2.63;;;;;;;13.35;77.69;101126.41;4969152;28;20052;-80
2021/09/16 03:37:33;;;;;;;8.15;1.88;;;;;;;13.35;77.39;101110.53;4966636;28;20051;-80
2021/09/16 03:40:02;;;;;;;8.15;2.35;;;;;;;13.36;77.49;101122.47;4950641;28;20475;-80
2021/09/16 03:42:31;;;;;;;7.85;3.33;;;;;;;13.33;77.47;101112.06;4967132;28;20051;-80
2021/09/16 03:44:57;;;;;;;8.50;3.45;;;;;;;13.31;77.59;101123.56;4951019;28;20455;-80
2021/09/16 03:47:24;;;;;;;9.00;3.60;;;;;;;13.28;77.67;101109.53;4949997;28;20486;-80
2021/09/16 03:49:51;;;;;;;4.63;2.00;;;;;;;13.28;77.66;101123.44;4965224;28;20058;-80
2021/09/16 03:52:18;;;;;;;10.07;2.20;;;;;;;13.27;77.53;101121.81;4968973;28;20042;-80
2021/09/16 03:54:44;;;;;;;7.60;3.17;;;;;;;13.20;77.59;101116.88;4951599;28;20043;-80
2021/09/16 03:57:11;;;;;;;9.68;2.47;;;;;;;13.14;77.75;101115.50;4967787;28;20446;-80
2021/09/16 03:59:38;;;;;;;5.97;1.70;;;;;;;13.11;78.09;101121.75;4967594;28;20053;-80
2021/09/16 04:02:04;;;;;;;5.93;2.00;;;;;;;13.10;78.24;101120.16;4951311;28;20384;-80
2021/09/16 04:04:31;;;;;;;9.23;1.98;;;;;;;13.09;77.92;101120.50;4950833;28;20043;-80
2021/09/16 04:06:58;;;;;;;7.90;1.88;;;;;;;13.04;78.37;101115.97;4967617;28;20049;-80
2021/09/16 04:09:25;;;;;;;5.97;2.05;;;;;;;13.04;78.11;101117.94;4968394;28;20042;-80
2021/09/16 04:11:51;;;;;;;5.78;2.03;;;;;;;13.03;78.25;101113.53;4948210;28;20039;-80
2021/09/16 04:14:18;;;;;;;2.50;1.83;;;;;;;13.02;78.45;101121.09;4964125;28;20034;-80
2021/09/16 04:16:45;;;;;;;6.90;2.00;;;;;;;13.00;78.33;101122.59;4948496;28;20035;-80
2021/09/16 04:19:12;;;;;;;9.60;2.10;;;;;;;12.96;78.27;101113.34;4947289;28;20192;-80
2021/09/16 04:21:38;;;;;;;7.03;1.92;;;;;;;12.97;78.37;101110.22;4944852;28;20057;-80
2021/09/16 04:24:06;;;;;;;7.30;2.45;;;;;;;12.98;78.05;101108.22;4964293;28;20047;-80
2021/09/16 04:26:32;;;;;;;9.43;1.90;;;;;;;12.95;78.32;101108.91;4949913;28;20059;-80
2021/09/16 04:28:59;;;;;;;7.38;1.70;;;;;;;12.93;78.41;101117.63;4950669;28;20513;-80
2021/09/16 04:31:26;;;;;;;7.15;2.17;;;;;;;12.90;78.38;101110.00;4966766;28;20399;-80
2021/09/16 04:33:52;;;;;;;5.00;1.67;;;;;;;12.82;78.49;101108.97;4950590;28;20049;-80
2021/09/16 04:36:19;;;;;;;14.48;2.55;;;;;;;12.81;78.41;101117.69;4949195;28;20045;-80
2021/09/16 04:38:46;;;;;;;5.35;1.63;;;;;;;12.78;78.46;101113.63;4938308;28;22049;-80
2021/09/16 04:41:12;;;;;;;15.05;2.75;;;;;;;12.75;78.68;101114.31;4967022;28;21025;-79
2021/09/16 04:43:39;;;;;;;5.28;2.88;;;;;;;12.75;78.59;101108.78;4966803;28;20065;-79
2021/09/16 04:46:06;;;;;;;6.15;1.65;;;;;;;12.76;78.63;101106.81;4936400;29;20051;-80
2021/09/16 04:48:33;;;;;;;7.43;1.60;;;;;;;12.75;78.49;101108.78;4942604;29;20053;-80
2021/09/16 04:51:00;;;;;;;9.40;2.50;;;;;;;12.74;78.35;101115.47;4942564;29;20044;-80
2021/09/16 04:53:26;;;;;;;9.45;4.55;;;;;;;12.70;78.39;101106.25;4942912;29;20476;-78
2021/09/16 04:55:56;;;;;;;7.57;1.75;;;;;;;12.65;78.70;101103.69;4958247;28;20095;-78
2021/09/16 04:58:22;;;;;;;9.43;2.13;;;;;;;12.64;78.76;101102.06;4939612;29;20146;-78
2021/09/16 05:00:49;;;;;;;8.07;2.10;;;;;;;12.63;78.55;101103.22;4946484;29;20071;-78
2021/09/16 05:03:16;;;;;;;9.85;2.47;;;;;;;12.62;78.63;101109.97;4945071;29;20058;-79
2021/09/16 05:05:43;;;;;;;6.38;2.15;;;;;;;12.62;78.62;101104.41;4922640;29;20082;-78
2021/09/16 05:08:11;;;;;;;8.88;2.00;;;;;;;12.61;78.69;101107.50;4948363;29;20039;-78
2021/09/16 05:10:38;;;;;;;9.95;1.83;;;;;;;12.60;78.63;101108.69;4946893;28;20070;-78
2021/09/16 05:13:05;;;;;;;5.78;1.85;;;;;;;12.57;78.73;101112.97;4947354;28;20050;-78
2021/09/16 05:15:31;;;;;;;8.32;2.13;;;;;;;12.57;78.66;101110.19;4945793;29;20047;-78
2021/09/16 05:17:58;;;;;;;6.45;2.55;;;;;;;12.55;78.87;101106.94;4945428;29;20055;-79
2021/09/16 05:20:26;;;;;;;4.72;1.80;;;;;;;12.55;78.69;101098.59;4944823;29;20043;-79
2021/09/16 05:22:53;;;;;;;6.57;2.10;;;;;;;12.59;78.71;101102.31;4948118;28;20384;-79
2021/09/16 05:25:20;;;;;;;6.80;2.42;;;;;;;12.59;78.63;101099.53;4946921;28;20047;-79
2021/09/16 05:27:48;;;;;;;6.20;1.90;;;;;;;12.58;78.65;101097.91;4945803;29;21179;-79
2021/09/16 05:30:15;;;;;;;5.50;1.77;;;;;;;12.60;78.63;101101.13;4945941;28;20130;-78
2021/09/16 05:32:42;;;;;;;6.63;1.55;;;;;;;12.59;78.32;101110.66;4944481;29;20047;-78
2021/09/16 05:35:10;;;;;;;5.88;2.20;;;;;;;12.60;78.43;101111.47;4942691;28;20061;-78
2021/09/16 05:37:38;;;;;;;5.55;1.92;;;;;;;12.61;78.60;101113.06;4928741;29;20145;-79
2021/09/16 05:40:05;;;;;;;5.15;1.95;;;;;;;12.63;78.42;101110.75;4944451;29;20043;-78
2021/09/16 05:42:32;;;;;;;6.90;1.95;;;;;;;12.64;78.50;101113.19;4929112;29;20047;-78
2021/09/16 05:44:59;;;;;;;8.13;2.00;;;;;;;12.62;78.32;101121.06;4945954;29;20043;-78
2021/09/16 05:47:25;;;;;;;6.40;1.90;;;;;;;12.59;78.58;101109.84;4930830;29;20047;-78
2021/09/16 05:49:52;;;;;;;5.72;1.83;;;;;;;12.56;78.68;101122.47;4932497;29;20130;-79
2021/09/16 05:52:19;;;;;;;6.28;2.38;;;;;;;12.55;78.73;101123.59;4931842;29;20083;-78
2021/09/16 05:54:46;;;;;;;5.47;1.77;;;;;;;12.52;78.85;101118.75;4913538;29;20146;-78
2021/09/16 05:57:12;;;;;;;10.30;1.80;;;;;;;12.48;78.95;101117.84;4930463;29;20089;-79
2021/09/16 05:59:39;;;;;;;8.23;1.88;;;;;;;12.48;78.96;101115.06;4940671;29;20047;-78
2021/09/16 06:02:06;;;;;;;10.07;1.77;;;;;;;12.47;79.25;101121.75;4938580;29;20043;-79
2021/09/16 06:04:33;;;;;;;5.22;1.90;;;;;;;12.53;78.99;101114.81;4941580;28;20043;-79
2021/09/16 06:07:03;;;;;;;7.30;2.38;;;;;;;12.52;78.86;101115.97;4947004;28;20451;-78
2021/09/16 06:09:31;;;;;;;5.93;1.90;;;;;;;12.56;78.86;101107.75;4918983;29;20406;-78
2021/09/16 06:12:00;;;;;;;8.57;3.42;;;;;;;12.55;78.99;101118.06;4925464;29;20048;-79
2021/09/16 06:14:26;;;;;;;5.15;2.05;;;;;;;12.52;79.09;101115.19;4947094;28;20047;-78
2021/09/16 06:16:53;;;;;;;6.53;2.00;;;;;;;12.50;79.07;101118.28;4948856;28;20066;-79
2021/09/16 06:19:20;;;;;;;11.57;2.67;;;;;;;12.48;79.25;101111.47;4923022;28;20052;-78
2021/09/16 06:21:47;;;;;;;5.88;2.17;;;;;;;12.47;79.41;101113.44;4949381;28;20046;-78
2021/09/16 06:24:14;;;;;;;9.32;4.55;;;;;;;12.48;79.24;101114.25;4929325;29;20580;-79
2021/09/16 06:26:41;;;;;;;7.85;2.35;;;;;;;12.49;79.24;101111.13;4952271;28;20051;-78
2021/09/16 06:29:08;;;;;;;5.55;1.75;;;;;;;12.48;79.34;101114.25;4949514;28;20039;-78
2021/09/16 06:31:35;;;;;;;8.27;2.42;;;;;;;12.51;79.29;101116.31;4944667;28;20061;-78
2021/09/16 06:34:02;;;;;;;6.05;2.05;;;;;;;12.52;79.02;101115.19;4952161;28;20039;-79
2021/09/16 06:36:29;;;;;;;8.48;3.05;;;;;;;12.56;79.08;101116.09;4949597;28;20043;-78
2021/09/16 06:38:55;;;;;;;8.20;2.72;;;;;;;12.55;79.08;101112.50;4949098;28;20065;-85
2021/09/16 06:41:22;;;;;;;4.55;1.73;;;;;;;12.57;79.03;101114.94;4943897;28;20034;-78
2021/09/16 06:43:49;;;;;;;4.72;1.63;;;;;;;12.55;79.33;101120.81;4937957;28;20055;-78
2021/09/16 06:46:16;;;;;;;10.80;2.85;;;;;;;12.59;79.34;101118.97;4950806;28;20055;-78
2021/09/16 06:48:42;;;;;;;8.15;2.13;;;;;;;12.63;79.32;101116.28;4951981;28;20047;-78
2021/09/16 06:51:09;;;;;;;4.93;2.03;;;;;;;12.72;79.28;101116.97;4950002;28;20050;-78
2021/09/16 06:53:56;;;;;;;5.53;1.98;;;;;;;12.78;79.22;101118.38;4937744;28;20407;-78
2021/09/16 06:56:23;;;;;;;4.63;2.28;;;;;;;12.87;79.04;101119.03;4950356;28;20066;-78
2021/09/16 06:58:50;;;;;;;10.18;2.88;;;;;;;12.96;79.12;101116.09;4950809;28;20043;-78
2021/09/16 07:01:16;;;;;;;4.40;1.77;;;;;;;13.06;78.83;101119.19;4967985;28;20101;-78
2021/09/16 07:03:46;;;;;;;6.97;1.90;;;;;;;13.15;78.78;101133.00;4949139;28;20077;-78
2021/09/16 07:06:15;;;;;;;14.93;3.92;;;;;;;13.26;78.67;101125.78;4950379;28;20041;-78
2021/09/16 07:08:42;;;;;;;9.27;1.88;;;;;;;13.34;78.50;101130.38;4966350;28;20130;-78
2021/09/16 07:11:09;;;;;;;5.03;2.08;;;;;;;13.44;78.34;101127.06;4967648;28;20054;-78
2021/09/16 07:13:35;;;;;;;6.28;1.48;;;;;;;13.55;78.19;101125.41;4950761;28;20645;-78
2021/09/16 07:16:02;;;;;;;9.38;1.80;;;;;;;13.66;78.06;101120.13;4966856;28;20046;-78
2021/09/16 07:18:34;;;;;;;10.10;1.35;;;;;;;13.78;78.07;101118.06;4949480;28;20051;-78
2021/09/16 07:21:02;;;;;;;10.82;2.17;;;;;;;13.92;77.64;101112.88;4965940;28;20042;-78
2021/09/16 07:23:29;;;;;;;9.88;1.50;;;;;;;14.04;77.33;101115.56;4967026;28;20054;-79
2021/09/16 07:26:03;;;;;;;9.32;2.67;;;;;;;14.19;77.15;101115.94;4947434;28;20487;-79
2021/09/16 07:28:34;;;;;;;6.95;1.73;;;;;;;14.30;77.08;101106.66;4968194;28;20820;-79
2021/09/16 07:31:01;;;;;;;8.25;1.83;;;;;;;14.40;76.99;101116.47;4967502;28;20049;-78
2021/09/16 07:33:28;;;;;;;13.55;2.47;;;;;;;14.47;76.74;101122.19;4952499;28;20038;-78
2021/09/16 07:35:55;;;;;;;6.97;1.75;;;;;;;14.53;76.62;101120.75;4934304;28;20043;-79
2021/09/16 07:38:22;;;;;;;9.98;1.85;;;;;;;14.59;76.43;101124.88;4948664;28;20149;-78
2021/09/16 07:40:49;;;;;;;6.32;1.90;;;;;;;14.65;76.25;101129.00;4949608;28;20134;-82
2021/09/16 07:43:16;;;;;;;4.72;2.08;;;;;;;14.71;76.15;101124.75;4947424;28;20636;-78
2021/09/16 07:45:47;;;;;;;7.93;2.28;;;;;;;14.75;75.91;101131.22;4957407;28;20053;-79
2021/09/16 07:48:14;;;;;;;9.88;2.00;;;;;;;14.79;75.84;101126.53;4963334;28;20051;-79
2021/09/16 07:50:41;;;;;;;9.85;1.85;;;;;;;14.84;75.80;101120.66;4965457;28;20057;-78
2021/09/16 07:53:10;;;;;;;5.25;1.52;;;;;;;14.90;75.97;101122.00;4938123;28;20043;-78
2021/09/16 07:55:37;;;;;;;5.65;1.75;;;;;;;14.92;75.74;101116.88;4935996;28;20501;-79
2021/09/16 07:58:05;;;;;;;10.50;1.95;;;;;;;14.94;75.60;101120.09;4965374;28;20054;-79
2021/09/16 08:00:33;;;;;;;5.78;1.50;;;;;;;14.97;75.48;101124.94;4965762;28;20042;-80
2021/09/16 08:03:00;;;;;;;5.05;1.48;;;;;;;15.00;75.39;101128.97;4936686;28;20046;-79
2021/09/16 08:05:27;;;;;;;7.72;1.75;;;;;;;15.04;75.22;101125.09;4965029;28;20042;-79
2021/09/16 08:07:54;;;;;;;6.43;2.17;;;;;;;15.11;75.02;101121.66;4965386;28;20121;-79
2021/09/16 08:10:21;;;;;;;8.30;2.15;;;;;;;15.16;74.96;101133.31;4938247;28;20042;-79
2021/09/16 08:12:47;;;;;;;6.05;1.60;;;;;;;15.18;74.97;101125.38;4949893;28;20051;-79
2021/09/16 08:15:15;;;;;;;6.32;1.60;;;;;;;15.22;74.53;101126.25;4950738;28;20489;-79
2021/09/16 08:17:41;;;;;;;9.68;2.45;;;;;;;15.30;74.35;101132.00;4966597;28;20511;-80
2021/09/16 08:20:09;;;;;;;11.20;2.53;;;;;;;15.37;74.09;101138.53;4950566;28;20097;-79
2021/09/16 08:22:36;;;;;;;12.77;2.05;;;;;;;15.43;73.82;101137.06;4948692;28;20055;-80
2021/09/16 08:25:06;;;;;;;4.63;1.35;;;;;;;15.50;73.40;101139.19;4949649;28;20051;-80
2021/09/16 08:27:33;;;;;;;3.25;1.60;;;;;;;15.59;73.24;101134.22;4966238;28;20049;-80
2021/09/16 08:30:02;;;;;;;4.28;1.60;;;;;;;15.67;72.68;101138.75;4965599;28;20089;-79
2021/09/16 08:32:29;;;;;;;3.92;1.35;;;;;;;15.73;72.70;101134.47;4948889;28;20047;-80
2021/09/16 08:34:56;;;;;;;4.40;1.50;;;;;;;15.80;72.25;101131.81;4940636;28;20490;-80
2021/09/16 08:37:23;;;;;;;8.50;2.08;;;;;;;15.84;72.00;101118.72;4963712;28;20051;-79
2021/09/16 08:39:50;;;;;;;3.28;1.27;;;;;;;15.89;72.06;101112.81;4948442;28;20411;-80
2021/09/16 08:42:17;;;;;;;5.28;0.95;;;;;;;15.95;71.69;101114.13;4966597;28;20491;-80
2021/09/16 08:44:44;;;;;;;6.20;1.88;;;;;;;16.05;71.64;101113.50;4931485;28;20050;-79
2021/09/16 08:47:14;;;;;;;3.20;1.15;;;;;;;16.17;71.32;101112.50;4929893;29;20503;-79
2021/09/16 08:49:41;;;;;;;4.57;1.20;;;;;;;16.29;71.49;101110.31;4948944;28;20055;-80
2021/09/16 08:52:09;;;;;;;5.25;1.83;;;;;;;16.51;72.07;101119.03;4948190;28;20070;-80
2021/09/16 08:54:39;;;;;;;5.97;1.63;;;;;;;16.83;72.85;101111.94;4946447;29;20173;-80
2021/09/16 08:57:09;;;;;;;7.05;1.23;;;;;;;17.16;72.43;101103.56;4947630;29;20051;-80
2021/09/16 08:59:36;;;;;;;4.25;1.45;;;;;;;17.38;70.81;101113.84;4947169;29;20055;-80
2021/09/16 09:02:03;;;;;;;4.45;0.80;;;;;;;17.52;69.34;101102.81;4948151;28;20053;-80
2021/09/16 09:04:30;;;;;;;2.65;1.02;;;;;;;17.62;68.42;101102.16;4948038;28;20046;-80
2021/09/16 09:07:05;;;;;;;2.35;0.88;;;;;;;17.76;66.75;101103.50;4927285;29;20075;-80
2021/09/16 09:09:32;;;;;;;3.17;0.90;;;;;;;18.01;66.35;101107.31;4944554;28;20047;-80
2021/09/16 09:12:05;;;;;;;4.55;0.70;;;;;;;18.21;65.03;101117.13;4938057;29;20046;-80
2021/09/16 09:14:38;;;;;;;2.65;0.77;;;;;;;18.48;64.36;101109.34;4933466;29;20044;-80
2021/09/16 09:17:26;;;;;;;4.18;0.90;;;;;;;19.08;62.89;101104.06;4947962;28;20411;-80
2021/09/16 09:19:54;;;;;;;4.00;0.88;;;;;;;19.29;62.65;101118.19;4953502;28;20151;-80
2021/09/16 09:22:33;;;;;;;3.17;0.90;;;;;;;19.38;61.21;101113.84;4948539;28;20051;-80
2021/09/16 09:25:03;;;;;;;2.97;0.80;;;;;;;19.41;61.21;101106.63;4951575;29;20406;-80
2021/09/16 09:27:36;;;;;;;2.55;0.88;;;;;;;19.72;60.22;101110.72;4950571;29;20070;-79
2021/09/16 09:30:07;;;;;;;4.60;0.55;;;;;;;20.11;59.79;101108.75;4950703;28;20050;-80
2021/09/16 09:33:05;;;;;;;5.32;1.00;;;;;;;20.35;58.46;101113.63;4952302;28;20146;-80
2021/09/16 09:35:43;;;;;;;5.15;1.00;;;;;;;20.19;58.35;101101.13;4944130;29;20178;-81
2021/09/16 09:38:21;;;;;;;2.03;0.70;;;;;;;19.99;57.44;101095.91;4949693;29;20051;-80
2021/09/16 09:40:53;;;;;;;2.58;0.65;;;;;;;19.82;57.97;101085.47;4949706;29;20055;-81
2021/09/16 09:43:33;;;;;;;2.55;0.60;;;;;;;19.87;57.30;101085.06;4951686;28;20100;-78
2021/09/16 09:46:17;;;;;;;1.35;0.55;;;;;;;19.84;56.79;101076.63;4950576;28;20059;-78
2021/09/16 09:48:57;;;;;;;3.10;0.90;;;;;;;19.80;57.22;101076.59;4941430;29;20047;-78
2021/09/16 09:51:58;;;;;;;4.03;0.63;;;;;;;20.24;55.95;101086.69;4949444;29;20066;-81
2021/09/16 09:54:41;;;;;;;3.00;0.65;;;;;;;20.71;55.67;101093.84;4947152;29;20138;-78
2021/09/16 09:57:15;;;;;;;2.17;0.80;;;;;;;21.11;55.22;101099.78;4949728;29;20066;-80
2021/09/16 09:59:58;;;;;;;2.97;0.65;;;;;;;21.10;54.86;101095.38;4948080;29;20062;-80
2021/09/16 10:02:55;;;;;;;1.60;0.68;;;;;;;21.43;53.76;101107.28;4932956;29;20047;-78
2021/09/16 10:05:25;;;;;;;1.17;0.70;;;;;;;21.77;54.32;101100.66;4939276;28;20068;-78
2021/09/16 10:07:53;;;;;;;3.28;0.60;;;;;;;22.10;53.38;101101.25;4947611;28;20545;-78
2021/09/16 10:10:20;;;;;;;2.13;0.50;;;;;;;22.35;52.90;101099.00;4949784;28;20131;-78
2021/09/16 10:12:49;;;;;;;2.78;0.60;;;;;;;22.26;52.10;101093.88;4951459;28;20055;-78
2021/09/16 10:15:19;;;;;;;5.13;1.15;;;;;;;22.05;51.34;101094.03;4948900;29;20055;-79
2021/09/16 10:17:48;;;;;;;4.03;0.63;;;;;;;21.70;51.67;101092.25;4950512;28;20073;-78
2021/09/16 10:20:18;;;;;;;3.85;0.70;;;;;;;21.64;51.75;101081.81;4950056;29;20305;-78
2021/09/16 10:22:48;;;;;;;1.88;0.93;;;;;;;21.48;51.73;101084.31;4950886;28;20051;-77
2021/09/16 10:25:17;;;;;;;1.92;0.80;;;;;;;21.21;51.94;101073.59;4949310;29;20494;-78
2021/09/16 10:27:47;;;;;;;4.60;1.63;;;;;;;21.16;52.07;101088.09;4947473;28;20043;-78
2021/09/16 10:30:23;;;;;;;2.05;0.55;;;;;;;21.28;51.08;101080.41;4946927;29;20146;-78
2021/09/16 10:33:12;;;;;;;6.93;1.63;;;;;;;21.91;50.89;101071.59;4948870;28;20051;-78
2021/09/16 10:35:43;;;;;;;1.85;0.70;;;;;;;22.53;50.22;101074.22;4945011;28;20119;-78
2021/09/16 10:38:24;;;;;;;2.63;0.60;;;;;;;22.65;49.35;101078.59;4933560;29;20483;-78
2021/09/16 10:41:20;;;;;;;7.63;1.33;;;;;;;22.51;49.36;101068.22;4947697;29;20106;-78
2021/09/16 10:43:58;;;;;;;3.47;0.68;;;;;;;22.25;49.95;101069.69;4945196;29;20054;-79
2021/09/16 10:46:37;;;;;;;2.55;0.80;;;;;;;22.03;49.89;101073.13;4958932;28;20091;-79
2021/09/16 10:49:20;;;;;;;1.33;0.50;;;;;;;21.93;49.91;101069.16;4965968;28;20568;-79
2021/09/16 10:52:02;;;;;;;1.30;0.52;;;;;;;21.86;49.61;101063.56;4961068;28;20129;-79
2021/09/16 10:54:35;;;;;;;;;;;;;;;21.69;50.34;101064.47;4963465;28;20047;-79
2021/09/16 10:57:22;;;;;;;4.28;1.27;;;;;;;21.41;51.06;101053.38;4962201;28;19926;-79
2021/09/16 10:59:49;;;;;;;2.90;0.52;;;;;;;21.25;51.60;101059.50;4956940;28;20047;-79
2021/09/16 11:02:38;;;;;;;3.40;1.95;;;;;;;21.13;52.46;101060.75;4967564;28;20073;-79
2021/09/16 11:05:18;;;;;;;3.60;0.80;;;;;;;21.00;52.15;101053.94;4946629;28;20053;-79
2021/09/16 11:07:48;;;;;;;3.58;0.75;;;;;;;20.79;52.36;101056.03;4938359;28;20414;-79
2021/09/16 11:10:15;;;;;;;2.40;0.50;;;;;;;20.69;52.58;101048.44;4966252;28;20047;-79
2021/09/16 11:13:19;;;;;;;2.42;0.70;;;;;;;20.61;52.89;101053.28;4969417;28;20054;-79
2021/09/16 11:15:53;;;;;;;3.60;1.00;;;;;;;20.59;53.18;101041.66;4966596;28;20133;-80
2021/09/16 11:18:40;;;;;;;3.20;1.10;;;;;;;20.53;53.83;101038.44;4966005;28;20046;-80
2021/09/16 11:21:07;;;;;;;3.72;1.15;;;;;;;20.49;53.54;101042.47;4961094;28;20589;-79
2021/09/16 11:23:37;;;;;;;3.67;0.95;;;;;;;20.44;53.67;101040.06;4967447;28;20522;-79
2021/09/16 11:26:04;;;;;;;3.75;1.08;;;;;;;20.35;53.99;101034.06;4950370;28;20236;-80
2021/09/16 11:28:31;;;;;;;5.25;1.10;;;;;;;20.17;53.85;101038.88;4968836;28;20047;-80
2021/09/16 11:30:58;;;;;;;4.18;1.00;;;;;;;20.04;54.17;101028.03;4935280;28;20463;-80
2021/09/16 11:33:25;;;;;;;4.22;0.80;;;;;;;19.98;54.93;101029.66;4950027;28;20414;-79